Merrick Jones — WDF4890 — position and weather

sailwx.info

Track history (hours):
 
Tides and Currents Weather Stations Pressure Air Temp Water Temp Dewpoint Dewpoint Depression Visibility Wind Speed Wind Dir Waves Ship Positions

Merrick Jones

Owner: Canal Barge Company, Inc., Belle Chasse, LA. More information available from US FCC via Universal Licensing System and Coast Guard Vessel Documentation Center.

Last reported at 2018-Jan-22 13:20 UTC. Time now 2018-Jan-24 12:09 UTC.
Position N 33°06' W 091°09'.

Length 47 m; draft 10 m.

Type: Towing. MMSI: 367456930.

Date/timePositionNaut miles runAvg speedWind from/ knotsBaromVisibWave heightAir tempDewpointWater temp
2018-Jan-22 13:20N 33°06' W 091°09'26 2.8
2018-Jan-22 03:47N 32°40' W 091°08'1 4.3
2018-Jan-22 03:30N 32°39' W 091°09'2 4.2
2018-Jan-22 03:01N 32°37' W 091°09'1 1.2
2018-Jan-22 02:30N 32°37' W 091°09'3 4.5
2018-Jan-22 01:45N 32°34' W 091°06'1 4.5
2018-Jan-22 01:27N 32°33' W 091°06'2 4.9
2018-Jan-22 01:00N 32°31' W 091°07'3 5.1
2018-Jan-22 00:30N 32°28' W 091°06'3 5.1
2018-Jan-22 00:00N 32°27' W 091°04'3 5.0
2018-Jan-21 23:31N 32°26' W 091°01'2 4.2
2018-Jan-21 23:00N 32°24' W 090°59'2 3.8
2018-Jan-21 22:30N 32°22' W 091°00'2 4.0
2018-Jan-21 22:00N 32°21' W 090°58'2 3.2
2018-Jan-21 21:30N 32°21' W 090°57'2 4.7
2018-Jan-21 21:01N 32°20' W 090°54'2 4.7
2018-Jan-21 20:30N 32°18' W 090°55'3 5.2
2018-Jan-21 20:00N 32°16' W 090°58'2 4.3
2018-Jan-21 19:31N 32°15' W 090°59'2 4.9
2018-Jan-21 19:00N 32°12' W 090°59'2 4.8
2018-Jan-21 18:30N 32°10' W 091°00'2 4.8
2018-Jan-21 18:01N 32°07' W 091°01'2 3.7
2018-Jan-21 17:30N 32°07' W 091°03'3 4.7
2018-Jan-21 16:58N 32°08' W 091°06'5 4.1
2018-Jan-21 15:39N 32°03' W 091°03'1 5.7
2018-Jan-21 15:30N 32°02' W 091°04'  
2018-Jan-19 06:10N 31°59' W 091°07'4 7.6
2018-Jan-19 05:35N 32°02' W 091°04'3 7.4
2018-Jan-19 05:07N 32°05' W 091°05'1 8.1
2018-Jan-19 04:59N 32°06' W 091°06'2 3.1
2018-Jan-19 04:21N 32°08' W 091°05'2 4.7
2018-Jan-19 04:00N 32°07' W 091°03'3 5.2
2018-Jan-19 03:30N 32°09' W 091°00'4 7.3
2018-Jan-19 03:00N 32°12' W 090°59'4 7.2
2018-Jan-19 02:30N 32°16' W 090°58'4 7.7
2018-Jan-19 02:00N 32°18' W 090°55'3 5.2
2018-Jan-19 01:30N 32°21' W 090°55'2 3.3
2018-Jan-19 01:00N 32°21' W 090°57'1 1.4
2018-Jan-19 00:30N 32°21' W 090°58'3 5.4
2018-Jan-19 00:00N 32°23' W 090°60'3 6.6
2018-Jan-18 23:30N 32°26' W 091°02'4 7.8
2018-Jan-18 23:00N 32°28' W 091°06'5 7.4
2018-Jan-18 22:19N 32°33' W 091°06'2 7.9
2018-Jan-18 22:00N 32°35' W 091°07'5 7.0
2018-Jan-18 21:16N 32°40' W 091°08'  
Track history (hours):
 
Tides and Currents Weather Stations Pressure Air Temp Water Temp Dewpoint Dewpoint Depression Visibility Wind Speed Wind Dir Waves Ship Positions

Merrick Jones

Owner: Canal Barge Company, Inc., Belle Chasse, LA. More information available from US FCC via Universal Licensing System and Coast Guard Vessel Documentation Center.

Last reported at 2018-Jan-22 13:20 UTC. Time now 2018-Jan-24 12:09 UTC.
Position N 33°06' W 091°09'.

Length 47 m; draft 10 m.

Type: Towing. MMSI: 367456930.

Date/timePositionNaut miles runAvg speedWind from/ knotsBaromVisibWave heightAir tempDewpointWater temp
2018-Jan-22 13:20N 33°06' W 091°09'26 2.8
2018-Jan-22 03:47N 32°40' W 091°08'1 4.3
2018-Jan-22 03:30N 32°39' W 091°09'2 4.2
2018-Jan-22 03:01N 32°37' W 091°09'1 1.2
2018-Jan-22 02:30N 32°37' W 091°09'3 4.5
2018-Jan-22 01:45N 32°34' W 091°06'1 4.5
2018-Jan-22 01:27N 32°33' W 091°06'2 4.9
2018-Jan-22 01:00N 32°31' W 091°07'3 5.1
2018-Jan-22 00:30N 32°28' W 091°06'3 5.1
2018-Jan-22 00:00N 32°27' W 091°04'3 5.0
2018-Jan-21 23:31N 32°26' W 091°01'2 4.2
2018-Jan-21 23:00N 32°24' W 090°59'2 3.8
2018-Jan-21 22:30N 32°22' W 091°00'2 4.0
2018-Jan-21 22:00N 32°21' W 090°58'2 3.2
2018-Jan-21 21:30N 32°21' W 090°57'2 4.7
2018-Jan-21 21:01N 32°20' W 090°54'2 4.7
2018-Jan-21 20:30N 32°18' W 090°55'3 5.2
2018-Jan-21 20:00N 32°16' W 090°58'2 4.3
2018-Jan-21 19:31N 32°15' W 090°59'2 4.9
2018-Jan-21 19:00N 32°12' W 090°59'2 4.8
2018-Jan-21 18:30N 32°10' W 091°00'2 4.8
2018-Jan-21 18:01N 32°07' W 091°01'2 3.7
2018-Jan-21 17:30N 32°07' W 091°03'3 4.7
2018-Jan-21 16:58N 32°08' W 091°06'5 4.1
2018-Jan-21 15:39N 32°03' W 091°03'1 5.7
2018-Jan-21 15:30N 32°02' W 091°04'  
2018-Jan-19 06:10N 31°59' W 091°07'4 7.6
2018-Jan-19 05:35N 32°02' W 091°04'3 7.4
2018-Jan-19 05:07N 32°05' W 091°05'1 8.1
2018-Jan-19 04:59N 32°06' W 091°06'2 3.1
2018-Jan-19 04:21N 32°08' W 091°05'2 4.7
2018-Jan-19 04:00N 32°07' W 091°03'3 5.2
2018-Jan-19 03:30N 32°09' W 091°00'4 7.3
2018-Jan-19 03:00N 32°12' W 090°59'4 7.2
2018-Jan-19 02:30N 32°16' W 090°58'4 7.7
2018-Jan-19 02:00N 32°18' W 090°55'3 5.2
2018-Jan-19 01:30N 32°21' W 090°55'2 3.3
2018-Jan-19 01:00N 32°21' W 090°57'1 1.4
2018-Jan-19 00:30N 32°21' W 090°58'3 5.4
2018-Jan-19 00:00N 32°23' W 090°60'3 6.6
2018-Jan-18 23:30N 32°26' W 091°02'4 7.8
2018-Jan-18 23:00N 32°28' W 091°06'5 7.4
2018-Jan-18 22:19N 32°33' W 091°06'2 7.9
2018-Jan-18 22:00N 32°35' W 091°07'5 7.0
2018-Jan-18 21:16N 32°40' W 091°08'  

Dump ship's entire track history